createdAt,value
2022-12-25T00:00:21.014Z,1004.91
2022-12-25T00:01:17.617Z,1004.95
2022-12-25T00:02:18.710Z,1004.92
2022-12-25T00:03:17.682Z,1004.91
2022-12-25T00:04:17.530Z,1004.93
2022-12-25T00:05:18.532Z,1004.84
2022-12-25T00:06:18.506Z,1004.82
2022-12-25T00:07:17.482Z,1004.77
2022-12-25T00:08:17.495Z,1004.79
2022-12-25T00:09:17.467Z,1004.77
2022-12-25T00:10:17.498Z,1004.81
2022-12-25T00:11:17.482Z,1004.89
2022-12-25T00:12:17.440Z,1004.92
2022-12-25T00:13:17.461Z,1004.90
2022-12-25T00:14:17.450Z,1004.89
2022-12-25T00:15:17.393Z,1004.91
2022-12-25T00:16:17.469Z,1004.92
2022-12-25T00:17:17.387Z,1004.92
2022-12-25T00:18:17.389Z,1004.95
2022-12-25T00:19:17.404Z,1005.01
2022-12-25T00:20:17.390Z,1004.93
2022-12-25T00:21:17.341Z,1004.96
2022-12-25T00:22:17.353Z,1004.86
2022-12-25T00:23:17.359Z,1004.83
2022-12-25T00:24:17.304Z,1004.76
2022-12-25T00:25:17.330Z,1004.73
2022-12-25T00:26:17.294Z,1004.77
2022-12-25T00:27:17.301Z,1004.67
2022-12-25T00:28:18.277Z,1004.62
2022-12-25T00:29:17.274Z,1004.67
2022-12-25T00:30:17.250Z,1004.69
2022-12-25T00:31:17.342Z,1004.68
2022-12-25T00:32:17.240Z,1004.68
2022-12-25T00:33:17.206Z,1004.72
2022-12-25T00:34:17.184Z,1004.77
2022-12-25T00:35:17.216Z,1004.74
2022-12-25T00:36:17.206Z,1004.70
2022-12-25T00:37:17.185Z,1004.67
2022-12-25T00:38:17.156Z,1004.65
2022-12-25T00:39:17.150Z,1004.70
2022-12-25T00:40:17.166Z,1004.70
2022-12-25T00:41:17.124Z,1004.71
2022-12-25T00:42:17.147Z,1004.69
2022-12-25T00:43:17.133Z,1004.70
2022-12-25T00:44:17.078Z,1004.74
2022-12-25T00:45:17.089Z,1004.73
2022-12-25T00:46:18.196Z,1004.69
2022-12-25T00:47:17.126Z,1004.70
2022-12-25T00:48:17.083Z,1004.71
2022-12-25T00:49:17.062Z,1004.71
2022-12-25T00:50:17.025Z,1004.76
2022-12-25T00:51:17.069Z,1004.78
2022-12-25T00:52:17.004Z,1004.78
2022-12-25T00:53:17.044Z,1004.81
2022-12-25T00:54:16.967Z,1004.79
2022-12-25T00:55:16.986Z,1004.79
2022-12-25T00:56:16.949Z,1004.83
2022-12-25T00:57:16.967Z,1004.79
2022-12-25T00:58:16.923Z,1004.81
2022-12-25T00:59:17.101Z,1004.79
2022-12-25T01:00:16.907Z,1004.80
2022-12-25T01:01:17.187Z,1004.84
2022-12-25T01:02:17.092Z,1004.81
2022-12-25T01:03:18.001Z,1004.74
2022-12-25T01:04:16.908Z,1004.77
2022-12-25T01:05:16.890Z,1004.75
2022-12-25T01:06:16.881Z,1004.76
2022-12-25T01:07:16.970Z,1004.78
2022-12-25T01:08:16.829Z,1004.84
2022-12-25T01:09:17.877Z,1004.89
2022-12-25T01:10:16.819Z,1004.84
2022-12-25T01:11:16.813Z,1004.87
2022-12-25T01:12:16.831Z,1004.84
2022-12-25T01:13:16.771Z,1004.95
2022-12-25T01:14:16.859Z,1004.95
2022-12-25T01:15:16.750Z,1004.94
2022-12-25T01:16:16.762Z,1004.94
2022-12-25T01:17:17.781Z,1004.99
2022-12-25T01:18:17.740Z,1004.97
2022-12-25T01:19:16.723Z,1004.99
2022-12-25T01:20:17.707Z,1005.05
2022-12-25T01:21:16.691Z,1005.04
2022-12-25T01:22:17.735Z,1005.10
2022-12-25T01:23:16.717Z,1005.17
2022-12-25T01:24:16.659Z,1005.26
2022-12-25T01:25:16.647Z,1005.25
2022-12-25T01:26:16.659Z,1005.24
2022-12-25T01:27:17.650Z,1005.25
2022-12-25T01:28:16.646Z,1005.28
2022-12-25T01:29:17.609Z,1005.29
2022-12-25T01:30:16.587Z,1005.24
2022-12-25T01:31:16.644Z,1005.29
2022-12-25T01:32:16.599Z,1005.25
2022-12-25T01:33:16.566Z,1005.20
2022-12-25T01:34:16.557Z,1005.28
2022-12-25T01:35:16.561Z,1005.28
2022-12-25T01:36:16.530Z,1005.26
2022-12-25T01:37:16.538Z,1005.30
2022-12-25T01:38:16.538Z,1005.28
2022-12-25T01:39:16.506Z,1005.33
2022-12-25T01:40:16.507Z,1005.38
2022-12-25T01:41:16.520Z,1005.36
2022-12-25T01:42:16.475Z,1005.37
2022-12-25T01:43:18.717Z,1005.42
2022-12-25T01:44:16.479Z,1005.37
2022-12-25T01:45:16.437Z,1005.33
2022-12-25T01:46:17.540Z,1005.38
2022-12-25T01:47:16.446Z,1005.39
2022-12-25T01:48:16.384Z,1005.30
2022-12-25T01:49:16.371Z,1005.36
2022-12-25T01:50:16.418Z,1005.37
2022-12-25T01:51:17.387Z,1005.35
2022-12-25T01:52:21.784Z,1005.35
2022-12-25T01:53:17.346Z,1005.40
2022-12-25T01:54:16.333Z,1005.35
2022-12-25T01:55:17.333Z,1005.36
2022-12-25T01:56:16.353Z,1005.33
2022-12-25T01:57:16.301Z,1005.35
2022-12-25T01:58:16.294Z,1005.39
2022-12-25T01:59:17.299Z,1005.34
2022-12-25T02:00:16.284Z,1005.44
2022-12-25T02:01:17.499Z,1005.34
2022-12-25T02:02:17.351Z,1005.36
2022-12-25T02:03:16.293Z,1005.28
2022-12-25T02:04:16.251Z,1005.32
2022-12-25T02:05:16.259Z,1005.31
2022-12-25T02:06:16.269Z,1005.38
2022-12-25T02:07:16.191Z,1005.38
2022-12-25T02:08:16.184Z,1005.33
2022-12-25T02:09:16.285Z,1005.35
2022-12-25T02:10:16.182Z,1005.33
2022-12-25T02:11:16.160Z,1005.28
2022-12-25T02:12:16.144Z,1005.31
2022-12-25T02:13:16.124Z,1005.37
2022-12-25T02:14:16.167Z,1005.36
2022-12-25T02:15:16.131Z,1005.41
2022-12-25T02:16:16.195Z,1005.37
2022-12-25T02:17:16.148Z,1005.39
2022-12-25T02:18:16.082Z,1005.32
2022-12-25T02:19:17.076Z,1005.34
2022-12-25T02:20:16.035Z,1005.44
2022-12-25T02:21:16.051Z,1005.34
2022-12-25T02:22:16.033Z,1005.35
2022-12-25T02:23:17.064Z,1005.34
2022-12-25T02:24:15.998Z,1005.31
2022-12-25T02:25:16.006Z,1005.40
2022-12-25T02:26:17.045Z,1005.32
2022-12-25T02:27:16.039Z,1005.39
2022-12-25T02:28:15.990Z,1005.27
2022-12-25T02:29:15.969Z,1005.30
2022-12-25T02:30:15.969Z,1005.23
2022-12-25T02:31:16.930Z,1005.29
2022-12-25T02:32:15.996Z,1005.29
2022-12-25T02:33:15.919Z,1005.33
2022-12-25T02:34:15.883Z,1005.35
2022-12-25T02:35:15.900Z,1005.36
2022-12-25T02:36:16.897Z,1005.30
2022-12-25T02:37:15.886Z,1005.32
2022-12-25T02:38:15.911Z,1005.36
2022-12-25T02:39:16.835Z,1005.27
2022-12-25T02:40:16.843Z,1005.41
2022-12-25T02:41:15.827Z,1005.33
2022-12-25T02:42:15.797Z,1005.26
2022-12-25T02:43:15.841Z,1005.28
2022-12-25T02:44:15.849Z,1005.24
2022-12-25T02:45:15.821Z,1005.24
2022-12-25T02:46:15.850Z,1005.27
2022-12-25T02:47:15.750Z,1005.28
2022-12-25T02:48:15.757Z,1005.21
2022-12-25T02:49:15.755Z,1005.16
2022-12-25T02:50:15.729Z,1005.15
2022-12-25T02:51:16.563Z,1005.14
2022-12-25T02:52:15.707Z,1005.14
2022-12-25T02:53:15.673Z,1005.14
2022-12-25T02:54:15.676Z,1005.12
2022-12-25T02:55:15.666Z,1005.10
2022-12-25T02:56:16.694Z,1005.20
2022-12-25T02:57:16.632Z,1005.20
2022-12-25T02:58:15.660Z,1005.16
2022-12-25T02:59:15.704Z,1005.21
2022-12-25T03:00:15.682Z,1005.23
2022-12-25T03:01:15.768Z,1005.24
2022-12-25T03:02:15.652Z,1005.26
2022-12-25T03:03:15.642Z,1005.31
2022-12-25T03:04:15.620Z,1005.34
2022-12-25T03:05:16.560Z,1005.33
2022-12-25T03:06:15.566Z,1005.37
2022-12-25T03:07:15.543Z,1005.39
2022-12-25T03:08:15.535Z,1005.38
2022-12-25T03:09:16.528Z,1005.48
2022-12-25T03:10:15.499Z,1005.41
2022-12-25T03:11:15.567Z,1005.39
2022-12-25T03:12:16.526Z,1005.45
2022-12-25T03:13:15.524Z,1005.38
2022-12-25T03:14:15.519Z,1005.39
2022-12-25T03:15:15.486Z,1005.38
2022-12-25T03:16:15.513Z,1005.40
2022-12-25T03:17:15.405Z,1005.34
2022-12-25T03:18:15.461Z,1005.30
2022-12-25T03:19:15.460Z,1005.33
2022-12-25T03:20:15.404Z,1005.34
2022-12-25T03:21:15.406Z,1005.28
2022-12-25T03:22:15.347Z,1005.28
2022-12-25T03:23:15.439Z,1005.30
2022-12-25T03:24:15.374Z,1005.34
2022-12-25T03:25:15.352Z,1005.36
2022-12-25T03:26:16.367Z,1005.36
2022-12-25T03:27:15.311Z,1005.45
2022-12-25T03:28:16.291Z,1005.42
2022-12-25T03:29:15.354Z,1005.46
2022-12-25T03:30:15.347Z,1005.44
2022-12-25T03:31:16.381Z,1005.45
2022-12-25T03:32:16.264Z,1005.36
2022-12-25T03:33:43.187Z,1005.41
2022-12-25T03:34:16.662Z,1005.44
2022-12-25T03:35:15.239Z,1005.41
2022-12-25T03:36:15.213Z,1005.40
2022-12-25T03:37:16.243Z,1005.39
2022-12-25T03:38:16.282Z,1005.42
2022-12-25T03:39:15.222Z,1005.40
2022-12-25T03:40:15.214Z,1005.46
2022-12-25T03:41:15.171Z,1005.47
2022-12-25T03:42:16.206Z,1005.56
2022-12-25T03:43:15.157Z,1005.50
2022-12-25T03:44:15.189Z,1005.49
2022-12-25T03:45:15.165Z,1005.47
2022-12-25T03:46:15.161Z,1005.52
2022-12-25T03:47:15.126Z,1005.55
2022-12-25T03:48:15.092Z,1005.55
2022-12-25T03:49:15.109Z,1005.61
2022-12-25T03:50:15.122Z,1005.59
2022-12-25T03:51:15.104Z,1005.58
2022-12-25T03:52:16.050Z,1005.53
2022-12-25T03:53:16.049Z,1005.49
2022-12-25T03:54:16.034Z,1005.59
2022-12-25T03:55:15.025Z,1005.54
2022-12-25T03:56:15.026Z,1005.64
2022-12-25T03:57:14.973Z,1005.62
2022-12-25T03:58:23.584Z,1005.66
2022-12-25T03:59:21.124Z,1005.63
2022-12-25T04:00:15.971Z,1005.60
2022-12-25T04:01:15.122Z,1005.59
2022-12-25T04:02:15.083Z,1005.53
2022-12-25T04:03:16.063Z,1005.43
2022-12-25T04:04:14.906Z,1005.41
2022-12-25T04:05:15.517Z,1005.43
2022-12-25T04:06:14.924Z,1005.36
2022-12-25T04:07:14.871Z,1005.42
2022-12-25T04:08:14.876Z,1005.38
2022-12-25T04:09:14.885Z,1005.45
2022-12-25T04:10:14.814Z,1005.43
2022-12-25T04:11:14.856Z,1005.36
2022-12-25T04:12:15.793Z,1005.37
2022-12-25T04:13:14.820Z,1005.43
2022-12-25T04:14:15.805Z,1005.42
2022-12-25T04:15:14.781Z,1005.48
2022-12-25T04:16:14.911Z,1005.49
2022-12-25T04:17:14.772Z,1005.49
2022-12-25T04:18:14.767Z,1005.47
2022-12-25T04:19:15.734Z,1005.53
2022-12-25T04:20:14.735Z,1005.52
2022-12-25T04:21:14.743Z,1005.49
2022-12-25T04:22:14.734Z,1005.51
2022-12-25T04:23:14.698Z,1005.50
2022-12-25T04:24:15.715Z,1005.52
2022-12-25T04:25:14.653Z,1005.54
2022-12-25T04:26:15.545Z,1005.48
2022-12-25T04:27:15.669Z,1005.58
2022-12-25T04:28:14.635Z,1005.62
2022-12-25T04:29:15.602Z,1005.64
2022-12-25T04:30:14.657Z,1005.65
2022-12-25T04:31:14.662Z,1005.69
2022-12-25T04:32:15.583Z,1005.63
2022-12-25T04:33:15.583Z,1005.62
2022-12-25T04:34:14.573Z,1005.64
2022-12-25T04:35:14.589Z,1005.61
2022-12-25T04:36:14.610Z,1005.61
2022-12-25T04:37:14.526Z,1005.61
2022-12-25T04:38:14.516Z,1005.64
2022-12-25T04:39:14.539Z,1005.66
2022-12-25T04:40:15.516Z,1005.74
2022-12-25T04:41:14.500Z,1005.76
2022-12-25T04:42:14.520Z,1005.78
2022-12-25T04:43:14.465Z,1005.84
2022-12-25T04:44:14.455Z,1005.88
2022-12-25T04:45:14.440Z,1005.86
2022-12-25T04:46:15.434Z,1005.78
2022-12-25T04:47:14.457Z,1005.82
2022-12-25T04:48:14.451Z,1005.85
2022-12-25T04:49:14.418Z,1005.81
2022-12-25T04:50:14.400Z,1005.77
2022-12-25T04:51:14.385Z,1005.73
2022-12-25T04:52:14.387Z,1005.77
2022-12-25T04:53:14.343Z,1005.78
2022-12-25T04:54:15.354Z,1005.74
2022-12-25T04:55:15.318Z,1005.68
2022-12-25T04:56:14.335Z,1005.69
2022-12-25T04:57:14.323Z,1005.70
2022-12-25T04:58:14.316Z,1005.66
2022-12-25T04:59:14.285Z,1005.61
2022-12-25T05:00:14.297Z,1005.57
2022-12-25T05:01:14.324Z,1005.63
2022-12-25T05:02:14.457Z,1005.59
2022-12-25T05:03:14.375Z,1005.59
2022-12-25T05:04:14.266Z,1005.53
2022-12-25T05:05:14.214Z,1005.57
2022-12-25T05:06:14.229Z,1005.49
2022-12-25T05:07:14.226Z,1005.52
2022-12-25T05:08:14.197Z,1005.61
2022-12-25T05:09:14.182Z,1005.66
2022-12-25T05:10:14.208Z,1005.59
2022-12-25T05:11:14.159Z,1005.61
2022-12-25T05:12:14.248Z,1005.62
2022-12-25T05:13:14.126Z,1005.53
2022-12-25T05:14:14.124Z,1005.51
2022-12-25T05:15:14.118Z,1005.44
2022-12-25T05:16:14.245Z,1005.48
2022-12-25T05:17:14.089Z,1005.48
2022-12-25T05:18:15.073Z,1005.44
2022-12-25T05:19:14.075Z,1005.39
2022-12-25T05:20:14.060Z,1005.41
2022-12-25T05:21:14.060Z,1005.37
2022-12-25T05:22:15.043Z,1005.40
2022-12-25T05:23:14.024Z,1005.40
2022-12-25T05:24:13.996Z,1005.41
2022-12-25T05:25:14.025Z,1005.37
2022-12-25T05:26:14.020Z,1005.34
2022-12-25T05:27:13.975Z,1005.32
2022-12-25T05:28:14.954Z,1005.34
2022-12-25T05:29:14.951Z,1005.31
2022-12-25T05:30:13.950Z,1005.26
2022-12-25T05:31:14.008Z,1005.28
2022-12-25T05:32:14.963Z,1005.27
2022-12-25T05:33:14.941Z,1005.25
2022-12-25T05:34:13.883Z,1005.21
2022-12-25T05:35:14.884Z,1005.29
2022-12-25T05:36:14.860Z,1005.19
2022-12-25T05:37:13.881Z,1005.16
2022-12-25T05:38:13.869Z,1005.12
2022-12-25T05:39:13.889Z,1005.08
2022-12-25T05:40:13.828Z,1005.10
2022-12-25T05:41:13.808Z,1005.05
2022-12-25T05:42:14.813Z,1005.08
2022-12-25T05:43:13.818Z,1005.06
2022-12-25T05:44:14.844Z,1005.07
2022-12-25T05:45:14.763Z,1005.14
2022-12-25T05:46:13.926Z,1005.20
2022-12-25T05:47:13.749Z,1005.20
2022-12-25T05:48:14.750Z,1005.24
2022-12-25T05:49:13.721Z,1005.25
2022-12-25T05:50:13.776Z,1005.30
2022-12-25T05:51:13.700Z,1005.34
2022-12-25T05:52:13.743Z,1005.33
2022-12-25T05:53:14.705Z,1005.28
2022-12-25T05:54:13.699Z,1005.23
2022-12-25T05:55:13.739Z,1005.23
2022-12-25T05:56:13.703Z,1005.20
2022-12-25T05:57:14.627Z,1005.18
2022-12-25T05:58:14.639Z,1005.13
2022-12-25T05:59:14.631Z,1005.13
2022-12-25T06:00:14.640Z,1005.08
2022-12-25T06:01:13.626Z,1005.02
2022-12-25T06:02:14.642Z,1005.04
2022-12-25T06:03:13.737Z,1004.99
2022-12-25T06:04:14.644Z,1004.97
2022-12-25T06:05:13.623Z,1005.04
2022-12-25T06:06:14.569Z,1004.96
2022-12-25T06:07:13.531Z,1005.01
2022-12-25T06:08:13.541Z,1004.99
2022-12-25T06:09:14.565Z,1005.02
2022-12-25T06:10:13.538Z,1005.08
2022-12-25T06:11:14.503Z,1005.02
2022-12-25T06:12:13.463Z,1004.99
2022-12-25T06:13:13.569Z,1005.02
2022-12-25T06:14:13.490Z,1005.09
2022-12-25T06:15:13.473Z,1005.10
2022-12-25T06:16:13.507Z,1005.15
2022-12-25T06:17:13.446Z,1005.12
2022-12-25T06:18:13.488Z,1005.16
2022-12-25T06:19:13.403Z,1005.11
2022-12-25T06:20:13.411Z,1005.12
2022-12-25T06:21:14.405Z,1005.10
2022-12-25T06:22:13.371Z,1005.12
2022-12-25T06:23:13.482Z,1005.13
2022-12-25T06:24:20.837Z,1005.07
2022-12-25T06:25:14.379Z,1005.09
2022-12-25T06:26:13.377Z,1005.03
2022-12-25T06:27:13.368Z,1005.03
2022-12-25T06:28:13.305Z,1005.15
2022-12-25T06:29:14.293Z,1005.08
2022-12-25T06:30:13.327Z,1005.11
2022-12-25T06:31:13.374Z,1005.07
2022-12-25T06:32:13.282Z,1005.07
2022-12-25T06:33:13.280Z,1005.12
2022-12-25T06:34:13.240Z,1005.13
2022-12-25T06:35:13.327Z,1005.11
2022-12-25T06:36:13.277Z,1005.09
2022-12-25T06:37:13.224Z,1005.07
2022-12-25T06:38:13.228Z,1005.08
2022-12-25T06:39:13.188Z,1005.12
2022-12-25T06:40:13.264Z,1005.15
2022-12-25T06:41:13.266Z,1005.21
2022-12-25T06:42:13.153Z,1005.18
2022-12-25T06:43:13.167Z,1005.18
2022-12-25T06:45:22.507Z,1005.19
2022-12-25T06:46:23.624Z,1005.28
2022-12-25T06:47:22.494Z,1005.20
2022-12-25T06:48:23.499Z,1005.25
2022-12-25T06:49:22.450Z,1005.25
2022-12-25T06:50:22.421Z,1005.27
2022-12-25T06:51:22.457Z,1005.27
2022-12-25T06:52:22.437Z,1005.36
2022-12-25T06:53:22.468Z,1005.26
2022-12-25T06:54:22.389Z,1005.23
2022-12-25T06:55:22.393Z,1005.20
2022-12-25T06:56:22.361Z,1005.22
2022-12-25T06:57:22.366Z,1005.23
2022-12-25T06:58:22.374Z,1005.22
2022-12-25T06:59:22.350Z,1005.25
2022-12-25T07:00:22.301Z,1005.21
2022-12-25T07:01:22.513Z,1005.14
2022-12-25T07:02:22.385Z,1005.14
2022-12-25T07:03:22.377Z,1005.16
2022-12-25T07:04:22.272Z,1005.15
2022-12-25T07:05:22.301Z,1005.16
2022-12-25T07:06:22.255Z,1005.15
2022-12-25T07:07:23.239Z,1005.20
2022-12-25T07:08:23.251Z,1005.22
2022-12-25T07:09:22.223Z,1005.24
2022-12-25T07:10:23.211Z,1005.25
2022-12-25T07:11:22.211Z,1005.29
2022-12-25T07:12:22.247Z,1005.33
2022-12-25T07:13:22.176Z,1005.37
2022-12-25T07:14:24.463Z,1005.34
2022-12-25T07:15:22.140Z,1005.39
2022-12-25T07:16:22.207Z,1005.40
2022-12-25T07:17:23.173Z,1005.46
2022-12-25T07:18:22.138Z,1005.45
2022-12-25T07:19:22.103Z,1005.38
2022-12-25T07:20:22.113Z,1005.42
2022-12-25T07:21:22.099Z,1005.45
2022-12-25T07:22:22.067Z,1005.46
2022-12-25T07:23:22.052Z,1005.43
2022-12-25T07:24:22.083Z,1005.41
2022-12-25T07:25:23.043Z,1005.39
2022-12-25T07:26:22.022Z,1005.45
2022-12-25T07:27:22.039Z,1005.37
2022-12-25T07:28:21.997Z,1005.40
2022-12-25T07:29:22.031Z,1005.41
2022-12-25T07:30:22.006Z,1005.40
2022-12-25T07:31:22.043Z,1005.41
2022-12-25T07:32:21.970Z,1005.46
2022-12-25T07:33:21.957Z,1005.43
2022-12-25T07:34:21.955Z,1005.40
2022-12-25T07:35:22.918Z,1005.46
2022-12-25T07:36:21.930Z,1005.44
2022-12-25T07:37:21.920Z,1005.47
2022-12-25T07:38:21.918Z,1005.44
2022-12-25T07:39:21.910Z,1005.49
2022-12-25T07:40:21.866Z,1005.50
2022-12-25T07:41:21.870Z,1005.43
2022-12-25T07:42:25.290Z,1005.46
2022-12-25T07:43:21.843Z,1005.38
2022-12-25T07:44:22.811Z,1005.36
2022-12-25T07:45:21.826Z,1005.37
2022-12-25T07:46:21.903Z,1005.31
2022-12-25T07:47:21.792Z,1005.27
2022-12-25T07:48:21.801Z,1005.25
2022-12-25T07:49:21.787Z,1005.22
2022-12-25T07:50:21.773Z,1005.24
2022-12-25T07:51:21.737Z,1005.19
2022-12-25T07:52:22.760Z,1005.27
2022-12-25T07:53:21.748Z,1005.24
2022-12-25T07:54:22.738Z,1005.21
2022-12-25T07:55:22.689Z,1005.19
2022-12-25T07:56:21.711Z,1005.21
2022-12-25T07:57:21.684Z,1005.18
2022-12-25T07:58:23.565Z,1005.24
2022-12-25T07:59:22.673Z,1005.21
2022-12-25T08:00:21.666Z,1005.22
2022-12-25T08:01:21.907Z,1005.24
2022-12-25T08:02:21.973Z,1005.20
2022-12-25T08:03:21.912Z,1005.21
2022-12-25T08:04:21.732Z,1005.21
2022-12-25T08:05:21.607Z,1005.19
2022-12-25T08:06:21.583Z,1005.22
2022-12-25T08:07:21.581Z,1005.18
2022-12-25T08:08:21.557Z,1005.21
2022-12-25T08:09:21.557Z,1005.25
2022-12-25T08:10:21.532Z,1005.27
2022-12-25T08:11:21.571Z,1005.16
2022-12-25T08:12:22.544Z,1005.14
2022-12-25T08:13:21.512Z,1005.11
2022-12-25T08:14:21.495Z,1005.13
2022-12-25T08:15:21.477Z,1005.11
2022-12-25T08:16:21.565Z,1005.09
2022-12-25T08:17:21.457Z,1005.02
2022-12-25T08:18:27.702Z,1005.07
2022-12-25T08:19:22.441Z,1005.07
2022-12-25T08:20:21.425Z,1005.12
2022-12-25T08:21:22.416Z,1005.06
2022-12-25T08:22:21.436Z,1005.14
2022-12-25T08:23:21.397Z,1005.01
2022-12-25T08:24:21.391Z,1005.04
2022-12-25T08:25:21.401Z,1005.06
2022-12-25T08:26:21.391Z,1005.11
2022-12-25T08:27:21.385Z,1005.05
2022-12-25T08:28:21.380Z,1005.02
2022-12-25T08:29:21.342Z,1005.01
2022-12-25T08:30:21.344Z,1004.96
2022-12-25T08:31:21.413Z,1004.92
2022-12-25T08:32:21.305Z,1004.96
2022-12-25T08:33:21.293Z,1004.95
2022-12-25T08:34:22.297Z,1004.90
2022-12-25T08:35:21.276Z,1004.82
2022-12-25T08:36:21.259Z,1004.90
2022-12-25T08:37:21.236Z,1004.85
2022-12-25T08:38:21.225Z,1004.89
2022-12-25T08:39:21.222Z,1004.94
2022-12-25T08:40:21.214Z,1004.94
2022-12-25T08:41:22.180Z,1004.91
2022-12-25T08:42:21.167Z,1004.93
2022-12-25T08:43:21.175Z,1004.96
2022-12-25T08:44:21.165Z,1004.96
2022-12-25T08:45:21.163Z,1004.93
2022-12-25T08:46:21.208Z,1005.00
2022-12-25T08:47:21.135Z,1005.05
2022-12-25T08:48:21.132Z,1004.97
2022-12-25T08:49:22.117Z,1005.04
2022-12-25T08:50:21.114Z,1005.04
2022-12-25T08:51:21.082Z,1004.91
2022-12-25T08:52:21.075Z,1004.99
2022-12-25T08:53:21.076Z,1004.95
2022-12-25T08:54:22.030Z,1004.93
2022-12-25T08:55:22.072Z,1004.94
2022-12-25T08:56:21.024Z,1004.93
2022-12-25T08:57:21.137Z,1004.89
2022-12-25T08:58:22.028Z,1004.85
2022-12-25T08:59:21.010Z,1004.86
2022-12-25T09:00:20.971Z,1004.82
2022-12-25T09:01:21.116Z,1004.81
2022-12-25T09:02:21.147Z,1004.76
2022-12-25T09:03:21.044Z,1004.75
2022-12-25T09:04:20.948Z,1004.79
2022-12-25T09:05:20.944Z,1004.77
2022-12-25T09:06:20.938Z,1004.78
2022-12-25T09:07:20.901Z,1004.76
2022-12-25T09:08:20.900Z,1004.78
2022-12-25T09:09:20.925Z,1004.69
2022-12-25T09:10:20.875Z,1004.73
2022-12-25T09:11:20.903Z,1004.74
2022-12-25T09:12:20.885Z,1004.68
2022-12-25T09:13:20.894Z,1004.65
2022-12-25T09:14:20.847Z,1004.63
2022-12-25T09:15:20.812Z,1004.54
2022-12-25T09:16:20.916Z,1004.60
2022-12-25T09:17:20.808Z,1004.66
2022-12-25T09:18:20.787Z,1004.57
2022-12-25T09:19:20.805Z,1004.58
2022-12-25T09:20:21.556Z,1004.57
2022-12-25T09:21:20.761Z,1004.54
2022-12-25T09:22:20.781Z,1004.53
2022-12-25T09:23:20.758Z,1004.57
2022-12-25T09:24:20.718Z,1004.58
2022-12-25T09:25:20.709Z,1004.61
2022-12-25T09:26:20.760Z,1004.59
2022-12-25T09:27:20.707Z,1004.55
2022-12-25T09:28:21.710Z,1004.53
2022-12-25T09:29:20.666Z,1004.55
2022-12-25T09:30:20.667Z,1004.57
2022-12-25T09:31:20.786Z,1004.55
2022-12-25T09:32:20.630Z,1004.54
2022-12-25T09:33:20.623Z,1004.54
2022-12-25T09:34:20.635Z,1004.51
2022-12-25T09:35:20.621Z,1004.51
2022-12-25T09:36:20.585Z,1004.46
2022-12-25T09:37:20.580Z,1004.48
2022-12-25T09:38:21.593Z,1004.46
2022-12-25T09:39:20.557Z,1004.48
2022-12-25T09:40:20.574Z,1004.46
2022-12-25T09:41:20.556Z,1004.52
2022-12-25T09:42:21.524Z,1004.54
2022-12-25T09:43:20.535Z,1004.52
2022-12-25T09:44:21.517Z,1004.52
2022-12-25T09:45:21.509Z,1004.52
2022-12-25T09:46:20.538Z,1004.55
2022-12-25T09:47:20.497Z,1004.56
2022-12-25T09:48:20.463Z,1004.63
2022-12-25T09:49:20.460Z,1004.64
2022-12-25T09:50:20.517Z,1004.70
2022-12-25T09:51:20.413Z,1004.67
2022-12-25T09:52:20.447Z,1004.70
2022-12-25T09:53:21.389Z,1004.68
2022-12-25T09:54:21.396Z,1004.69
2022-12-25T09:55:21.191Z,1004.70
2022-12-25T09:56:20.391Z,1004.60
2022-12-25T09:57:20.368Z,1004.60
2022-12-25T09:58:21.365Z,1004.60
2022-12-25T09:59:21.352Z,1004.52
2022-12-25T10:00:20.472Z,1004.53
2022-12-25T10:01:20.498Z,1004.52
2022-12-25T10:02:20.473Z,1004.54
2022-12-25T10:03:20.335Z,1004.53
2022-12-25T10:04:20.303Z,1004.53
2022-12-25T10:05:20.260Z,1004.54
2022-12-25T10:06:20.259Z,1004.55
2022-12-25T10:07:21.249Z,1004.57
2022-12-25T10:08:20.264Z,1004.56
2022-12-25T10:09:20.227Z,1004.52
2022-12-25T10:10:20.240Z,1004.52
2022-12-25T10:11:20.212Z,1004.49
2022-12-25T10:12:20.195Z,1004.39
2022-12-25T10:13:20.195Z,1004.33
2022-12-25T10:14:20.187Z,1004.31
2022-12-25T10:15:20.183Z,1004.28
2022-12-25T10:16:21.231Z,1004.32
2022-12-25T10:17:20.128Z,1004.34
2022-12-25T10:18:20.144Z,1004.37
2022-12-25T10:19:20.112Z,1004.40
2022-12-25T10:20:20.114Z,1004.39
2022-12-25T10:21:20.120Z,1004.33
2022-12-25T10:22:20.109Z,1004.32
2022-12-25T10:23:20.074Z,1004.27
2022-12-25T10:24:21.092Z,1004.22
2022-12-25T10:25:21.064Z,1004.22
2022-12-25T10:26:20.136Z,1004.25
2022-12-25T10:27:20.033Z,1004.19
2022-12-25T10:28:20.056Z,1004.21
2022-12-25T10:29:20.001Z,1004.24
2022-12-25T10:30:20.028Z,1004.21
2022-12-25T10:31:20.140Z,1004.24
2022-12-25T10:32:19.989Z,1004.14
2022-12-25T10:33:19.982Z,1004.11
2022-12-25T10:34:19.966Z,1004.05
2022-12-25T10:35:19.935Z,1004.05
2022-12-25T10:36:19.933Z,1004.08
2022-12-25T10:37:19.946Z,1004.00
2022-12-25T10:38:19.921Z,1004.04
2022-12-25T10:39:19.919Z,1004.04
2022-12-25T10:40:19.890Z,1003.98
2022-12-25T10:41:19.911Z,1003.90
2022-12-25T10:42:19.928Z,1003.94
2022-12-25T10:43:19.862Z,1003.83
2022-12-25T10:44:19.879Z,1003.79
2022-12-25T10:45:20.833Z,1003.84
2022-12-25T10:46:20.907Z,1003.84
2022-12-25T10:47:19.810Z,1003.93
2022-12-25T10:48:20.803Z,1003.88
2022-12-25T10:49:19.821Z,1003.96
2022-12-25T10:50:20.855Z,1003.91
2022-12-25T10:51:19.766Z,1003.96
2022-12-25T10:52:19.782Z,1003.89
2022-12-25T10:53:19.745Z,1003.86
2022-12-25T10:54:19.716Z,1003.89
2022-12-25T10:55:24.986Z,1003.91
2022-12-25T10:56:20.713Z,1003.89
2022-12-25T10:57:20.716Z,1003.86
2022-12-25T10:58:19.693Z,1003.82
2022-12-25T10:59:19.671Z,1003.74
2022-12-25T11:00:19.674Z,1003.70
2022-12-25T11:01:19.777Z,1003.70
2022-12-25T11:02:19.910Z,1003.72
2022-12-25T11:03:19.842Z,1003.67
2022-12-25T11:04:20.608Z,1003.75
2022-12-25T11:05:19.605Z,1003.67
2022-12-25T11:06:19.597Z,1003.66
2022-12-25T11:07:20.604Z,1003.60
2022-12-25T11:08:20.596Z,1003.55
2022-12-25T11:09:19.562Z,1003.47
2022-12-25T11:10:19.547Z,1003.45
2022-12-25T11:11:19.547Z,1003.45
2022-12-25T11:12:19.593Z,1003.47
2022-12-25T11:13:20.539Z,1003.43
2022-12-25T11:14:19.529Z,1003.44
2022-12-25T11:15:19.485Z,1003.42
2022-12-25T11:16:19.572Z,1003.50
2022-12-25T11:17:19.463Z,1003.30
2022-12-25T11:18:19.479Z,1003.32
2022-12-25T11:19:19.495Z,1003.31
2022-12-25T11:20:19.459Z,1003.29
2022-12-25T11:21:19.414Z,1003.27
2022-12-25T11:22:19.420Z,1003.18
2022-12-25T11:23:19.418Z,1003.22
2022-12-25T11:24:19.410Z,1003.10
2022-12-25T11:25:19.398Z,1003.10
2022-12-25T11:26:19.383Z,1003.05
2022-12-25T11:27:19.362Z,1002.98
2022-12-25T11:28:19.364Z,1002.98
2022-12-25T11:29:20.350Z,1002.90
2022-12-25T11:30:19.439Z,1002.84
2022-12-25T11:31:19.450Z,1002.77
2022-12-25T11:32:19.340Z,1002.78
2022-12-25T11:33:19.304Z,1002.78
2022-12-25T11:34:19.305Z,1002.73
2022-12-25T11:35:19.309Z,1002.69
2022-12-25T11:36:20.304Z,1002.67
2022-12-25T11:37:19.239Z,1002.60
2022-12-25T11:38:19.228Z,1002.60
2022-12-25T11:39:19.230Z,1002.62
2022-12-25T11:40:19.225Z,1002.56
2022-12-25T11:41:19.217Z,1002.56
2022-12-25T11:42:19.217Z,1002.57
2022-12-25T11:43:19.180Z,1002.61
2022-12-25T11:44:19.173Z,1002.58
2022-12-25T11:45:19.185Z,1002.55
2022-12-25T11:46:19.188Z,1002.57
2022-12-25T11:47:19.148Z,1002.55
2022-12-25T11:48:20.135Z,1002.58
2022-12-25T11:49:19.137Z,1002.57
2022-12-25T11:50:20.138Z,1002.68
2022-12-25T11:51:19.088Z,1002.71
2022-12-25T11:52:20.112Z,1002.74
2022-12-25T11:53:19.104Z,1002.80
2022-12-25T11:54:20.087Z,1002.84
2022-12-25T11:55:19.040Z,1002.86
2022-12-25T11:56:19.027Z,1002.86
2022-12-25T11:57:19.056Z,1002.78
2022-12-25T11:58:20.030Z,1002.77
2022-12-25T11:59:19.026Z,1002.68
2022-12-25T12:00:19.040Z,1002.75
2022-12-25T12:01:19.025Z,1002.77
2022-12-25T12:02:19.152Z,1002.80
2022-12-25T12:03:19.078Z,1002.82
2022-12-25T12:04:21.033Z,1002.75
2022-12-25T12:05:19.925Z,1002.70
2022-12-25T12:06:18.924Z,1002.74